Notice: Undefined index: language in /var/www/vam/vam/index.php on line 25
Air Côte d'Ivoire Virtuel

 METAR AND TAF INFORMATION
METAR FOR FOOL
ADDS - METARS form results

(0109 UTC 23 March 2019)
Data provider http://aviationweather.gov/metar/data/
 
METAR text: FOOL 230100Z 08006KT 9000 FEW011 24/23 Q1009 NOSIG
Conditions at: FOOL (LIBREVILLE/LEON , GA) observed 0100 UTC 23 March 2019
Temperature: 24.0°C (75°F)
Dewpoint: 23.0°C (73°F) [RH = 94%]
Pressure (altimeter): 29.79 inches Hg (1009.0 mb)
Winds: from the E (80 degrees) at 7 MPH (6 knots; 3.1 m/s)
Visibility: 6 miles ( 9 km)
Ceiling: at least 12,000 feet AGL
Clouds: few clouds at 1100 feet AGL
Weather: no significant weather observed at this time

METAR text: FOOL 230030Z 08007KT 8000 FEW010 24/23 Q1009 NOSIG
Conditions at: FOOL (LIBREVILLE/LEON , GA) observed 0030 UTC 23 March 2019
Temperature: 24.0°C (75°F)
Dewpoint: 23.0°C (73°F) [RH = 94%]
Pressure (altimeter): 29.79 inches Hg (1009.0 mb)
Winds: from the E (80 degrees) at 8 MPH (7 knots; 3.6 m/s)
Visibility: 5 miles ( 8 km)
Ceiling: at least 12,000 feet AGL
Clouds: few clouds at 1000 feet AGL
Weather: no significant weather observed at this time

Forecast for: FOOL (LIBREVILLE/LEON , GA)
Text: TAF FOOL 222300Z 2300/2406 10005KT 8000 SCT010 FEW020CB BKN030
Forecast period: 0000 UTC 23 March 2019 to 0600 UTC 24 March 2019
Forecast type: FROM: standard forecast or significant change
Winds: from the E (100 degrees) at 6 MPH (5 knots; 2.6 m/s)
Visibility: 5 miles (8 km)
Ceiling: 3000 feet AGL
Clouds: scattered clouds at 1000 feet AGL
few clouds at 2000 feet AGL
broken clouds at 3000 feet AGL
Weather: no significant weather forecast for this period
Text: TEMPO 2314/2320 2500 TSRA BKN006 FEW018CB OVC026
Forecast period: 1400 to 2000 UTC 23 March 2019
Forecast type: TEMPORARY: The following changes expected for less than half the time period
Visibility: 1.55 miles (2.49 km)
Ceiling: 600 feet AGL
Clouds: broken clouds at 600 feet AGL
few clouds at 1800 feet AGL
overcast cloud deck at 2600 feet AGL
Weather: TSRA  (rain associated with thunderstorm(s))

 AIRPORT MAP

 RUNWAY INFORMATION
Runway 16 Runway length 9844 ft Runway width 148 ft
Runway elevation 29 ft Runway displaced threshold 0 ft Runway heading 154
Runway 34 Runway length 9844 ft Runway width 148 ft
Runway elevation 28 ft Runway displaced threshold 0 ft Runway heading 334

 AIRPORT FREQUENCIES
Type A/G Name A/G VOICE Frequency 655.9 MHZ
Type RDO Name LIBREVILLE Frequency 666.6 MHZ
Type TWR Name TWR Frequency 118.7 MHZ

 AIRPORT NEAR NAVIGATION AIDS
Type VOR-DME Name Libreville Frequency 112100 KHZ





Site is not affiliated with, endorsed, or sponsored by Air Côte d'Ivoire. Air Côte d'Ivoire logo are registered trademarks of Air Côte d'Ivoire. ©2017 Air Côte d'Ivoire Virtuel. All rights reserved.